Other Surface Observations
Issued by NWS Missoula, MT

Home | Current Version | Previous Version | Text Only | Print | Product List | Glossary On
Versions: 1 2 3 4 5 6 7 8 9 10 11 12 13 14 15 16 17 18 19 20 21 22 23 24 25 26 27 28 29 30 31 32 33 34 35 36 37 38 39 40 41 42 43 44 45 46 47 48 49 50
637
SXUS55 KMSO 270503
OSOMSO
MONTANA AWOS SUMMARY
NATIONAL WEATHER SERVICE MISSOULA MT
1103 PM MDT THU MAY 26 2016

Montana AWOS Reports

LAUREL      |K6S8 270455Z AUTO 00000KT 40SM 09/06 A2992 RMK AO1 T00890056
SCOBEY      |K9S2 270455Z AUTO 00000KT 40SM 09/06 A2989 RMK AO1 T00940056
PLAINS      |KS34 270455Z AUTO 00000KT 25SM 13/06 A2995 RMK AO1 T01330061
TWIN BRIDGES|K7S1 270455Z AUTO 34004KT 40SM 11/03 A2995 RMK AO1 T01110033
ROUNDUP     |KRPX 270455Z AUTO 00000KT 40SM 10/06 A2985 RMK AO1 T01000061
EKALAKA     |K97M 270455Z AUTO 00000KT 40SM 09/05 A2988 RMK AO1 T00890050




USA.gov is the U.S. government's official web portal to all federal, state and local government web resources and services.